Time;durP1;ratioP1;P1;durP2;ratioP2;P2;SDS_P1;SDS_P2;PMS_P1;PMS_P2;Temp;Humidity;BMP_temperature;BMP_pressure;BME280_temperature;BME280_humidity;BME280_pressure;Samples;Min_cycle;Max_cycle;Signal;HPM_P1;HPM_P2
2022/05/18 00:03:21;;;;;;;78.77;73.10;;;;;;;16.46;100.00;101787.18;1995026;71;33418;-73
2022/05/18 00:09:05;;;;;;;77.70;72.10;;;;;;;16.37;100.00;101804.69;2008199;71;30894;-73
2022/05/18 00:14:51;;;;;;;79.90;74.30;;;;;;;16.26;100.00;101802.30;2018515;71;30896;-66
2022/05/18 00:20:37;;;;;;;80.90;75.17;;;;;;;16.16;100.00;101809.45;2006333;71;30874;-65
2022/05/18 00:26:22;;;;;;;80.53;74.90;;;;;;;16.11;100.00;101804.73;2007963;71;31418;-67
2022/05/18 00:32:07;;;;;;;76.33;70.83;;;;;;;16.05;100.00;101811.53;1991764;71;31309;-68
2022/05/18 00:37:51;;;;;;;77.80;72.30;;;;;;;15.93;100.00;101821.77;2018555;71;32908;-74
2022/05/18 00:43:43;;;;;;;80.67;74.90;;;;;;;15.78;100.00;101815.50;2008150;71;32916;-67
2022/05/18 00:49:30;;;;;;;80.90;75.10;;;;;;;15.77;100.00;101818.86;2007887;71;31397;-74
2022/05/18 00:55:18;;;;;;;84.30;78.50;;;;;;;15.78;100.00;101823.91;2013025;71;30904;-68
2022/05/18 01:01:04;;;;;;;78.53;73.10;;;;;;;15.64;100.00;101843.94;2015113;71;30961;-73
2022/05/18 01:06:53;;;;;;;78.00;72.40;;;;;;;15.44;100.00;101851.94;2015172;71;30976;-74
2022/05/18 01:09:26;;;;;;;80.67;75.03;;;;;;;15.44;100.00;101851.94;1982962;72;26222;-67
2022/05/18 01:15:15;;;;;;;79.47;74.13;;;;;;;15.52;100.00;101844.33;2002485;71;32791;-73
2022/05/18 01:21:00;;;;;;;76.40;71.00;;;;;;;15.35;100.00;101857.89;1995307;71;32875;-68
2022/05/18 01:26:51;;;;;;;76.27;70.97;;;;;;;15.30;100.00;101869.97;2005870;71;32867;-67
2022/05/18 01:32:43;;;;;;;80.27;74.87;;;;;;;15.28;100.00;101876.97;2009783;71;33404;-72
2022/05/18 01:38:29;;;;;;;77.00;71.80;;;;;;;15.09;100.00;101883.00;2002604;71;30900;-74
2022/05/18 01:44:16;;;;;;;75.50;70.30;;;;;;;15.04;100.00;101874.08;1981907;71;32772;-67
2022/05/18 01:50:02;;;;;;;76.80;71.50;;;;;;;14.97;100.00;101878.58;2016968;71;32816;-73
2022/05/18 01:55:47;;;;;;;78.50;72.90;;;;;;;14.86;100.00;101885.94;2009593;71;33366;-66
2022/05/18 02:01:32;;;;;;;78.10;72.80;;;;;;;14.80;100.00;101892.14;2016942;71;32821;-73
2022/05/18 02:07:18;;;;;;;81.50;76.10;;;;;;;14.64;100.00;101891.92;2016850;71;32835;-73
2022/05/18 02:13:03;;;;;;;77.03;71.80;;;;;;;14.58;100.00;101899.52;2012960;71;32832;-74
2022/05/18 02:18:50;;;;;;;74.67;69.67;;;;;;;14.53;100.00;101893.11;2013172;71;33363;-68
2022/05/18 02:24:34;;;;;;;76.17;70.73;;;;;;;14.31;100.00;101900.98;2013050;71;32840;-74
2022/05/18 02:30:21;;;;;;;78.03;72.83;;;;;;;14.16;100.00;101913.62;2016796;71;32968;-66
2022/05/18 02:36:07;;;;;;;77.80;72.80;;;;;;;13.82;100.00;101919.80;2009576;71;33365;-67
2022/05/18 02:41:53;;;;;;;72.70;67.60;;;;;;;13.78;100.00;101929.05;2000268;71;32809;-73
2022/05/18 02:47:37;;;;;;;72.23;67.23;;;;;;;13.42;100.00;101941.60;2004121;71;32886;-74
2022/05/18 02:53:24;;;;;;;66.73;61.83;;;;;;;13.25;100.00;101936.84;2015336;71;32937;-73
2022/05/18 02:59:10;;;;;;;67.30;62.33;;;;;;;13.31;100.00;101943.24;2006374;71;32961;-66
2022/05/18 03:04:56;;;;;;;71.07;65.97;;;;;;;13.46;100.00;101936.30;1999053;71;33215;-67
2022/05/18 03:10:41;;;;;;;71.90;66.77;;;;;;;13.36;100.00;101946.89;2016842;71;32908;-68
2022/05/18 03:16:27;;;;;;;73.43;68.43;;;;;;;13.33;100.00;101954.98;2005747;71;32896;-74
2022/05/18 03:25:02;;;;;;;68.10;62.97;;;;;;;13.21;100.00;101973.38;1970180;72;26719;-67
2022/05/18 03:30:46;;;;;;;70.93;65.80;;;;;;;13.16;100.00;101960.81;2014912;71;32895;-66
2022/05/18 03:36:32;;;;;;;71.07;66.03;;;;;;;13.15;100.00;101963.31;2004587;71;32882;-74
2022/05/18 03:42:17;;;;;;;69.60;64.43;;;;;;;12.99;100.00;101965.20;2018555;71;32874;-67
2022/05/18 03:48:01;;;;;;;69.60;64.60;;;;;;;12.82;100.00;101969.31;2013304;71;33412;-74
2022/05/18 03:53:46;;;;;;;71.93;66.63;;;;;;;12.70;100.00;101970.40;2011526;71;32812;-73
2022/05/18 03:59:31;;;;;;;66.90;62.00;;;;;;;12.73;100.00;101982.94;1999133;70;32836;-74
2022/05/18 04:05:18;;;;;;;67.97;62.77;;;;;;;12.91;100.00;101986.66;2000871;71;32764;-66
2022/05/18 04:11:02;;;;;;;69.33;64.30;;;;;;;12.76;100.00;101991.59;2016522;71;32817;-73
2022/05/18 04:16:49;;;;;;;65.97;60.97;;;;;;;13.04;100.00;101999.25;1999292;71;32832;-67
2022/05/18 04:19:20;;;;;;;65.50;60.60;;;;;;;12.93;100.00;102008.66;1958796;72;26201;-74
2022/05/18 04:25:05;;;;;;;70.00;65.00;;;;;;;12.87;100.00;101993.89;2007494;71;32807;-74
2022/05/18 04:30:50;;;;;;;69.30;64.43;;;;;;;12.50;100.00;101998.15;2008230;71;32813;-72
2022/05/18 04:36:35;;;;;;;66.77;61.57;;;;;;;12.57;100.00;102001.55;2005895;71;33299;-73
2022/05/18 04:42:22;;;;;;;68.13;62.83;;;;;;;12.91;100.00;102015.94;2004524;71;33211;-67
2022/05/18 04:44:54;;;;;;;71.43;66.13;;;;;;;13.02;100.00;102025.16;1958909;72;26197;-73
2022/05/18 04:50:40;;;;;;;73.73;68.23;;;;;;;12.84;100.00;102018.11;2011713;71;32925;-67
2022/05/18 04:56:25;;;;;;;73.67;68.47;;;;;;;12.78;100.00;102025.64;2016545;71;32855;-67
2022/05/18 05:02:11;;;;;;;74.70;69.50;;;;;;;12.88;100.00;102038.77;2014904;71;32909;-73
2022/05/18 05:07:55;;;;;;;75.83;70.23;;;;;;;12.82;100.00;102039.03;2004567;71;32779;-66
2022/05/18 05:13:41;;;;;;;71.67;66.23;;;;;;;12.92;100.00;102044.67;2016745;71;32926;-72
2022/05/18 05:19:27;;;;;;;69.90;64.40;;;;;;;12.94;100.00;102051.64;2006245;71;32778;-74
2022/05/18 05:25:14;;;;;;;71.60;65.70;;;;;;;12.82;100.00;102064.97;2012958;71;32828;-66
2022/05/18 05:31:04;;;;;;;70.67;65.20;;;;;;;13.09;100.00;102067.61;2009407;71;32896;-66
2022/05/18 05:36:50;;;;;;;70.53;65.17;;;;;;;13.10;100.00;102076.24;2018929;71;33387;-73
2022/05/18 05:42:34;;;;;;;75.77;69.77;;;;;;;13.13;100.00;102079.38;2016727;71;32877;-74
2022/05/18 05:48:21;;;;;;;72.57;66.67;;;;;;;13.21;100.00;102078.02;2009453;71;32855;-65
2022/05/18 05:54:07;;;;;;;80.60;74.43;;;;;;;13.27;100.00;102088.62;2000765;71;32895;-73
2022/05/18 05:59:51;;;;;;;76.63;70.63;;;;;;;13.29;100.00;102091.99;2016823;71;32828;-67
2022/05/18 06:05:35;;;;;;;80.03;74.00;;;;;;;13.38;100.00;102100.13;2016996;71;32951;-73
2022/05/18 06:11:21;;;;;;;85.00;78.90;;;;;;;13.50;100.00;102101.56;1908918;70;33071;-64
2022/05/18 06:17:06;;;;;;;87.30;81.20;;;;;;;13.60;100.00;102102.16;1991575;71;32754;-67
2022/05/18 06:22:50;;;;;;;81.80;75.67;;;;;;;13.77;100.00;102114.48;2006471;71;33240;-66
2022/05/18 06:28:36;;;;;;;81.40;75.07;;;;;;;13.76;100.00;102116.43;2008251;71;32861;-69
2022/05/18 06:34:22;;;;;;;82.93;76.57;;;;;;;13.95;100.00;102114.77;2015197;71;32922;-67
2022/05/18 06:40:09;;;;;;;82.30;76.17;;;;;;;14.05;100.00;102120.94;2014960;71;32811;-68
2022/05/18 06:45:53;;;;;;;82.73;76.50;;;;;;;14.24;100.00;102127.68;2011520;71;32830;-68
2022/05/18 06:51:41;;;;;;;83.80;77.80;;;;;;;14.49;100.00;102122.12;2011298;71;32938;-72
2022/05/18 06:57:27;;;;;;;81.83;75.80;;;;;;;14.51;100.00;102126.85;1967034;72;32821;-66
2022/05/18 07:03:11;;;;;;;82.73;76.73;;;;;;;14.71;100.00;102125.17;2005801;71;33302;-67
2022/05/18 07:08:55;;;;;;;81.67;75.60;;;;;;;14.93;100.00;102127.09;2011383;71;32981;-67
2022/05/18 07:14:40;;;;;;;81.73;75.73;;;;;;;15.12;100.00;102130.94;1991558;70;32947;-68
2022/05/18 07:20:24;;;;;;;73.87;67.97;;;;;;;15.14;100.00;102134.86;2006155;71;32820;-68
2022/05/18 07:26:09;;;;;;;74.53;68.97;;;;;;;15.22;100.00;102139.32;1991612;71;32825;-75
2022/05/18 07:32:12;;;;;;;80.33;74.43;;;;;;;15.35;100.00;102141.52;2004443;71;32770;-71
2022/05/18 07:37:57;;;;;;;74.37;68.80;;;;;;;15.72;100.00;102133.23;1995118;71;32769;-72
2022/05/18 07:43:41;;;;;;;70.23;65.13;;;;;;;15.82;100.00;102137.39;2000277;71;32899;-71
2022/05/18 07:49:26;;;;;;;75.80;70.30;;;;;;;15.91;100.00;102137.06;2004339;71;32817;-71
2022/05/18 07:55:12;;;;;;;80.20;74.73;;;;;;;16.11;100.00;102145.89;2015025;71;32837;-67
2022/05/18 08:00:57;;;;;;;74.47;69.17;;;;;;;16.31;100.00;102140.96;2015021;71;32152;-67
2022/05/18 08:06:41;;;;;;;77.93;72.03;;;;;;;16.86;100.00;102142.21;2000272;71;32882;-73
2022/05/18 08:18:32;;;;;;;72.63;67.70;;;;;;;17.28;100.00;102150.12;2011339;70;31391;-67
2022/05/18 08:24:21;;;;;;;71.13;66.37;;;;;;;17.36;100.00;102155.68;2006377;71;30952;-72
2022/05/18 08:30:09;;;;;;;69.47;65.00;;;;;;;17.46;100.00;102147.11;2008066;71;30911;-73
2022/05/18 08:35:54;;;;;;;69.50;64.70;;;;;;;17.91;100.00;102143.45;1995247;70;30921;-67
2022/05/18 08:41:42;;;;;;;65.27;61.27;;;;;;;17.85;100.00;102139.88;2016855;71;30946;-66
2022/05/18 08:47:34;;;;;;;68.97;64.13;;;;;;;17.85;100.00;102139.03;1997112;71;30991;-73
2022/05/18 08:53:29;;;;;;;66.40;62.17;;;;;;;18.23;100.00;102132.86;2008180;71;33279;-73
2022/05/18 08:59:16;;;;;;;67.07;62.87;;;;;;;18.43;100.00;102125.48;2016708;71;30974;-68
2022/05/18 09:05:04;;;;;;;61.07;57.73;;;;;;;18.71;100.00;102134.30;2006390;71;30909;-67
2022/05/18 09:10:57;;;;;;;62.80;59.33;;;;;;;18.68;100.00;102136.33;1991707;71;31315;-72
2022/05/18 09:16:44;;;;;;;63.97;60.27;;;;;;;18.91;100.00;102132.50;2009441;71;30933;-68
2022/05/18 09:22:38;;;;;;;62.87;59.23;;;;;;;18.93;100.00;102129.39;2002319;71;30993;-73
2022/05/18 09:25:14;;;;;;;57.57;54.33;;;;;;;19.32;100.00;102135.37;1965873;72;24226;-67
2022/05/18 09:31:21;;;;;;;52.00;49.07;;;;;;;19.15;100.00;102125.30;2013435;71;30991;-73
2022/05/18 09:34:43;;;;;;;59.10;55.80;;;;;;;19.25;100.00;102129.91;1986926;72;24213;-67
2022/05/18 09:37:28;;;;;;;49.23;46.47;;;;;;;19.71;100.00;102126.97;1910284;72;24151;-66
2022/05/18 09:40:02;;;;;;;47.97;45.37;;;;;;;19.56;100.00;102118.26;1959199;72;24171;-72
2022/05/18 09:42:35;;;;;;;48.83;46.23;;;;;;;19.97;100.00;102112.55;1962863;72;24281;-67
2022/05/18 09:45:09;;;;;;;44.73;42.23;;;;;;;19.66;100.00;102124.26;1959860;72;24171;-66
2022/05/18 09:50:57;;;;;;;38.10;35.50;;;;;;;19.76;100.00;102100.91;2000395;71;30977;-72
2022/05/18 09:56:46;;;;;;;34.13;32.13;;;;;;;19.89;100.00;102101.45;1994595;71;30987;-72
2022/05/18 09:59:20;;;;;;;36.60;34.37;;;;;;;19.88;100.00;102098.94;1976155;72;24147;-68
2022/05/18 10:11:14;;;;;;;35.90;33.60;;;;;;;19.79;100.00;102103.09;2007473;71;31021;-66
2022/05/18 10:17:07;;;;;;;31.53;29.70;;;;;;;20.15;100.00;102093.79;2000792;71;30991;-67
2022/05/18 10:22:54;;;;;;;32.57;30.70;;;;;;;20.33;100.00;102088.54;2011604;71;30907;-67
2022/05/18 10:28:46;;;;;;;30.73;28.90;;;;;;;20.53;100.00;102084.37;2000347;71;31356;-72
2022/05/18 10:34:44;;;;;;;29.37;27.53;;;;;;;20.59;100.00;102081.66;2007738;71;30911;-67
2022/05/18 10:40:30;;;;;;;27.87;26.37;;;;;;;21.04;100.00;102064.88;2009270;70;30915;-67
2022/05/18 10:43:34;;;;;;;22.93;21.73;;;;;;;20.92;100.00;102072.30;1967759;72;24578;-66
2022/05/18 10:49:28;;;;;;;19.67;18.33;;;;;;;21.08;100.00;102054.58;2000790;71;30871;-73
2022/05/18 10:52:10;;;;;;;14.93;13.97;;;;;;;21.07;100.00;102062.80;1968764;72;24167;-73
2022/05/18 10:54:54;;;;;;;14.23;13.33;;;;;;;20.87;100.00;102052.09;1963003;72;24232;-73
2022/05/18 11:00:49;;;;;;;12.47;11.67;;;;;;;21.22;100.00;102040.36;2000947;71;30828;-71
2022/05/18 11:09:45;;;;;;;10.63;10.00;;;;;;;20.99;100.00;102045.81;2051571;69;31226;-67
2022/05/18 11:12:21;;;;;;;12.23;11.23;;;;;;;21.35;100.00;102055.75;2014692;71;24596;-72
2022/05/18 11:14:55;;;;;;;11.47;10.77;;;;;;;21.38;100.00;102047.80;2016421;71;24176;-72
2022/05/18 11:20:49;;;;;;;13.20;12.40;;;;;;;21.02;100.00;102050.23;2011127;71;31379;-73
2022/05/18 11:23:24;;;;;;;18.17;17.07;;;;;;;;;;1986405;72;24680;-76
2022/05/18 11:29:19;;;;;;;11.55;10.68;;;;;;;21.63;100.00;102032.86;2002711;71;30945;-67
2022/05/18 11:35:22;;;;;;;12.13;11.30;;;;;;;21.62;100.00;102041.92;1991825;71;30896;-67
2022/05/18 11:38:03;;;;;;;12.30;11.50;;;;;;;21.74;100.00;102032.19;1958872;72;24156;-73
2022/05/18 11:40:38;;;;;;;12.30;11.30;;;;;;;21.58;100.00;102029.61;1962404;72;26830;-67
2022/05/18 11:43:33;;;;;;;11.97;11.27;;;;;;;21.56;100.00;102028.29;1974182;72;24213;-67
2022/05/18 11:49:10;;;;;;;12.20;11.30;;;;;;;22.05;100.00;102030.64;1792035;80;24248;-66
2022/05/18 11:51:44;;;;;;;12.80;11.75;;;;;;;22.12;100.00;102023.88;1791980;80;24841;-72
2022/05/18 12:00:55;;;;;;;12.28;11.50;;;;;;;21.94;100.00;101995.96;2053085;69;30680;-74
2022/05/18 12:03:57;;;;;;;11.70;10.82;;;;;;;21.96;100.00;101985.12;2022633;70;24588;-67
2022/05/18 12:06:36;;;;;;;11.75;10.93;;;;;;;21.84;100.00;101979.28;2016047;70;24177;-66
2022/05/18 12:12:36;;;;;;;11.43;10.63;;;;;;;22.00;100.00;101971.38;1995399;71;30831;-72
2022/05/18 12:15:12;;;;;;;11.30;10.63;;;;;;;22.22;100.00;101980.25;1970827;72;24151;-66
2022/05/18 12:17:45;;;;;;;11.60;10.98;;;;;;;22.13;100.00;101984.52;1959234;72;24172;-66
2022/05/18 12:20:20;;;;;;;11.70;10.78;;;;;;;22.05;100.00;101978.87;1975868;72;24728;-72
2022/05/18 12:22:53;;;;;;;11.43;10.82;;;;;;;22.11;100.00;101985.45;1962796;72;24140;-73
2022/05/18 12:28:41;;;;;;;11.83;11.03;;;;;;;22.20;100.00;101978.36;1999046;71;30873;-66
2022/05/18 12:34:30;;;;;;;11.85;10.88;;;;;;;22.21;100.00;101966.67;2013306;71;30923;-73
2022/05/18 12:44:08;;;;;;;11.88;11.18;;;;;;;22.30;100.00;101960.99;2006281;71;31424;-73
2022/05/18 12:50:00;;;;;;;11.47;10.73;;;;;;;22.43;100.00;101930.22;2016755;71;31032;-66
2022/05/18 12:52:46;;;;;;;12.30;11.50;;;;;;;22.40;100.00;101928.08;1966029;72;24151;-66
2022/05/18 12:58:58;;;;;;;11.73;11.03;;;;;;;22.49;100.00;101930.29;2005964;70;30886;-72
2022/05/18 13:05:05;;;;;;;11.95;11.08;;;;;;;22.77;100.00;101949.66;2011301;71;31358;-67
2022/05/18 13:11:11;;;;;;;12.18;11.40;;;;;;;22.57;100.00;101945.58;2005760;71;31385;-74
2022/05/18 13:17:24;;;;;;;11.90;11.10;;;;;;;22.57;100.00;101954.91;2016828;71;31437;-71
2022/05/18 13:23:28;;;;;;;11.53;10.82;;;;;;;22.29;100.00;101928.21;2009641;71;31380;-67
2022/05/18 13:29:17;;;;;;;11.97;11.18;;;;;;;22.27;100.00;101953.77;2009441;71;30910;-72
2022/05/18 13:35:06;;;;;;;12.15;11.25;;;;;;;22.37;100.00;101950.00;1998538;71;31132;-66
2022/05/18 13:40:55;;;;;;;12.40;11.40;;;;;;;22.49;100.00;101946.45;2004364;71;31360;-67
2022/05/18 13:46:40;;;;;;;11.80;11.20;;;;;;;22.76;100.00;101933.28;2000524;71;31025;-68
2022/05/18 13:52:29;;;;;;;11.88;11.18;;;;;;;22.56;100.00;101923.50;2015110;71;30883;-71
2022/05/18 13:58:20;;;;;;;11.97;11.28;;;;;;;22.38;100.00;101912.00;2015289;71;30886;-66
2022/05/18 14:04:12;;;;;;;12.00;11.28;;;;;;;22.68;100.00;101889.61;2011751;71;30821;-72
2022/05/18 14:10:00;;;;;;;11.88;11.25;;;;;;;22.75;100.00;101873.54;2011261;71;30896;-67
2022/05/18 14:19:12;;;;;;;11.70;11.00;;;;;;;22.82;100.00;101857.40;2000862;71;30866;-72
2022/05/18 14:25:00;;;;;;;12.90;12.10;;;;;;;22.79;100.00;101847.59;1994870;71;30951;-74
2022/05/18 14:30:50;;;;;;;12.50;11.73;;;;;;;22.54;100.00;101847.98;2011931;71;31413;-71
2022/05/18 14:36:38;;;;;;;12.28;11.57;;;;;;;22.68;100.00;101838.62;1975303;71;27921;-67
2022/05/18 14:42:28;;;;;;;11.90;11.03;;;;;;;22.90;100.00;101831.00;2004479;71;30829;-72
2022/05/18 14:51:47;;;;;;;11.85;11.25;;;;;;;22.48;100.00;101824.43;2000247;71;31059;-70
2022/05/18 14:57:36;;;;;;;11.97;11.25;;;;;;;22.45;100.00;101804.72;1968366;72;31107;-71
2022/05/18 15:06:31;;;;;;;12.07;11.38;;;;;;;22.61;100.00;101805.77;2040356;69;30573;-66
2022/05/18 15:09:06;;;;;;;12.33;11.60;;;;;;;22.46;99.56;101803.52;2012687;70;24571;-71
2022/05/18 15:11:40;;;;;;;11.93;11.33;;;;;;;22.61;98.82;101814.27;1954233;73;24645;-65
2022/05/18 15:17:46;;;;;;;11.50;10.90;;;;;;;22.60;91.54;101809.77;2006712;71;30996;-67
2022/05/18 15:23:42;;;;;;;12.10;11.38;;;;;;;22.44;87.08;101799.39;2006364;71;30937;-70
2022/05/18 15:29:35;;;;;;;12.53;11.83;;;;;;;22.44;92.44;101778.16;2016958;71;31012;-71
2022/05/18 15:35:26;;;;;;;11.73;11.00;;;;;;;22.43;98.42;101774.48;2007714;71;30953;-72
2022/05/18 15:41:10;;;;;;;20.35;13.22;;;;;;;22.30;96.84;101764.83;2005978;71;31020;-69
2022/05/18 15:46:59;;;;;;;11.75;11.15;;;;;;;22.36;84.44;101755.81;2013214;71;31058;-68
2022/05/18 15:52:48;;;;;;;12.45;11.55;;;;;;;22.34;83.10;101753.06;1991517;71;30908;-73
2022/05/18 15:58:33;;;;;;;12.40;11.25;;;;;;;22.31;85.94;101741.84;1995206;71;31108;-73
2022/05/18 16:04:19;;;;;;;12.63;11.57;;;;;;;22.32;93.58;101744.09;2016903;71;31374;-73
2022/05/18 16:10:04;;;;;;;12.55;11.55;;;;;;;22.33;95.15;101736.69;2003734;71;30934;-66
2022/05/18 16:15:51;;;;;;;11.50;10.90;;;;;;;22.25;92.23;101717.15;1990988;71;30883;-68
2022/05/18 16:21:38;;;;;;;11.83;11.12;;;;;;;22.40;91.52;101719.14;2004233;71;30948;-72
2022/05/18 16:27:28;;;;;;;11.85;11.25;;;;;;;22.36;97.11;101711.93;2007135;71;30888;-74
2022/05/18 16:33:13;;;;;;;12.40;11.60;;;;;;;22.31;91.93;101697.14;2006585;71;30960;-71
2022/05/18 16:38:57;;;;;;;12.03;11.33;;;;;;;22.46;92.17;101696.54;2016760;71;30900;-69
2022/05/18 16:44:47;;;;;;;10.98;10.38;;;;;;;22.51;94.60;101693.48;2002700;71;30808;-67
2022/05/18 16:50:32;;;;;;;12.58;11.80;;;;;;;22.39;97.63;101683.50;1996972;71;30943;-73
2022/05/18 16:56:21;;;;;;;12.18;11.48;;;;;;;22.33;95.21;101663.67;2008059;71;30873;-67
2022/05/18 17:02:07;;;;;;;11.95;11.22;;;;;;;22.35;96.92;101661.30;2016579;71;30989;-74
2022/05/18 17:08:43;;;;;;;12.15;11.40;;;;;;;22.37;99.66;101668.30;2012137;71;31344;-75
2022/05/18 17:13:39;;;;;;;12.47;11.78;;;;;;;22.33;97.31;101653.76;2003776;71;30875;-69
2022/05/18 17:19:23;;;;;;;11.78;11.10;;;;;;;22.25;97.88;101648.39;2013716;71;30833;-73
2022/05/18 17:25:09;;;;;;;11.10;10.50;;;;;;;22.31;100.00;101650.43;2000949;71;31314;-70
2022/05/18 17:30:55;;;;;;;11.12;10.63;;;;;;;22.12;96.40;101643.23;2009649;71;30964;-70
2022/05/18 17:36:39;;;;;;;11.30;10.63;;;;;;;22.21;98.71;101631.27;2015082;71;30900;-69
2022/05/18 17:42:24;;;;;;;11.43;10.82;;;;;;;22.17;100.00;101626.06;2004091;71;30930;-70
2022/05/18 17:48:10;;;;;;;11.20;10.70;;;;;;;21.95;99.73;101629.83;2015079;71;30944;-73
2022/05/18 17:53:55;;;;;;;12.05;11.45;;;;;;;21.79;100.00;101619.64;2002778;71;30970;-75
2022/05/18 17:59:42;;;;;;;10.93;10.40;;;;;;;21.70;100.00;101615.45;2006230;71;30826;-72
2022/05/18 18:05:31;;;;;;;11.20;10.65;;;;;;;21.52;100.00;101607.43;1995222;71;30960;-74
2022/05/18 18:11:16;;;;;;;11.90;11.10;;;;;;;21.38;100.00;101602.01;2006309;71;30820;-68
2022/05/18 18:17:01;;;;;;;11.05;10.65;;;;;;;21.37;100.00;101599.51;2015065;71;30985;-75
2022/05/18 18:22:50;;;;;;;11.77;10.97;;;;;;;21.44;100.00;101599.80;2012003;71;30888;-80
2022/05/18 18:28:35;;;;;;;11.00;10.40;;;;;;;21.36;100.00;101595.85;2000893;71;30874;-73
2022/05/18 18:34:19;;;;;;;10.98;10.48;;;;;;;21.27;100.00;101588.00;1995235;71;30843;-74
2022/05/18 18:40:15;;;;;;;11.50;10.93;;;;;;;21.28;100.00;101578.36;1932682;74;31257;-75
2022/05/18 18:58:07;;;;;;;11.57;11.07;;;;;;;21.09;100.00;101570.28;2013166;71;30888;-67
2022/05/18 19:03:51;;;;;;;10.33;9.83;;;;;;;21.02;100.00;101562.89;2006563;71;30854;-74
2022/05/18 19:09:40;;;;;;;11.00;10.50;;;;;;;20.87;100.00;101569.12;2016942;71;30912;-68
2022/05/18 19:15:29;;;;;;;10.93;10.43;;;;;;;20.79;100.00;101555.86;2011172;71;31027;-75
2022/05/18 19:21:13;;;;;;;9.88;9.38;;;;;;;20.94;100.00;101562.94;2008319;71;30813;-78
2022/05/18 19:26:57;;;;;;;10.05;9.63;;;;;;;20.70;100.00;101555.05;1999135;71;31356;-71
2022/05/18 19:32:43;;;;;;;10.80;10.13;;;;;;;20.52;100.00;101543.55;2014851;70;30980;-69
2022/05/18 19:38:27;;;;;;;10.37;9.77;;;;;;;20.50;100.00;101538.22;2006416;71;30920;-68
2022/05/18 19:44:13;;;;;;;10.90;10.40;;;;;;;20.42;100.00;101557.42;2011887;71;31332;-74
2022/05/18 19:49:58;;;;;;;10.30;9.70;;;;;;;20.29;100.00;101542.88;2000151;71;31023;-74
2022/05/18 19:55:46;;;;;;;11.20;10.50;;;;;;;20.24;100.00;101545.29;2004447;71;30812;-69
2022/05/18 20:01:30;;;;;;;10.17;9.67;;;;;;;20.15;100.00;101536.00;1997254;71;30810;-72
2022/05/18 20:07:16;;;;;;;10.90;10.30;;;;;;;20.15;100.00;101538.02;2006270;71;30877;-74
2022/05/18 20:13:00;;;;;;;10.27;9.77;;;;;;;20.13;100.00;101534.69;1991732;71;30902;-70
2022/05/18 20:18:44;;;;;;;10.57;10.07;;;;;;;20.14;100.00;101527.89;2017089;71;31442;-72
2022/05/18 20:24:28;;;;;;;10.47;9.97;;;;;;;20.04;100.00;101492.96;2016844;71;31481;-73
2022/05/18 20:30:14;;;;;;;10.70;10.20;;;;;;;19.74;100.00;101494.23;1995361;71;30794;-70
2022/05/18 20:35:58;;;;;;;11.60;11.10;;;;;;;19.57;100.00;101484.35;2011172;71;30892;-72
2022/05/18 20:41:45;;;;;;;10.77;10.23;;;;;;;19.50;100.00;101476.41;1991499;71;30824;-72
2022/05/18 20:47:35;;;;;;;11.33;10.77;;;;;;;19.26;100.00;101478.80;2011233;70;31421;-72
2022/05/18 20:53:22;;;;;;;11.40;10.87;;;;;;;19.17;100.00;101463.06;2006540;71;31402;-69
2022/05/18 20:59:12;;;;;;;12.03;11.33;;;;;;;19.20;100.00;101459.01;2011075;71;30923;-71
2022/05/18 21:04:58;;;;;;;11.83;11.17;;;;;;;19.14;100.00;101460.88;2009939;71;30870;-73
2022/05/18 21:10:45;;;;;;;11.47;10.97;;;;;;;19.30;100.00;101447.41;2015175;71;31396;-71
2022/05/18 21:16:32;;;;;;;12.23;11.53;;;;;;;19.26;100.00;101446.41;2014923;71;31544;-72
2022/05/18 21:22:18;;;;;;;10.90;10.40;;;;;;;19.21;100.00;101424.63;2018848;71;31463;-66
2022/05/18 21:28:06;;;;;;;11.27;10.77;;;;;;;19.00;100.00;101423.00;2000584;71;31455;-79
2022/05/18 21:33:52;;;;;;;11.33;10.73;;;;;;;18.98;100.00;101411.25;2004160;71;31009;-77
2022/05/18 21:39:37;;;;;;;12.20;11.50;;;;;;;18.90;100.00;101414.88;2007998;71;32928;-69
2022/05/18 21:45:23;;;;;;;11.80;11.13;;;;;;;18.90;100.00;101397.41;2013415;71;30910;-76
2022/05/18 21:51:08;;;;;;;11.50;10.90;;;;;;;19.06;100.00;101402.81;2006002;71;30918;-70
2022/05/18 21:56:54;;;;;;;11.97;11.20;;;;;;;19.22;100.00;101397.52;2013823;71;30882;-78
2022/05/18 22:02:37;;;;;;;11.97;11.27;;;;;;;19.42;100.00;101385.63;1995480;71;30867;-79
2022/05/18 22:08:23;;;;;;;11.43;10.93;;;;;;;19.60;100.00;101397.72;2007765;71;30943;-80
2022/05/18 22:14:10;;;;;;;13.00;12.40;;;;;;;19.65;100.00;101417.86;2008193;71;31409;-70
2022/05/18 22:19:55;;;;;;;17.03;16.13;;;;;;;19.43;100.00;101434.36;2006344;71;33312;-70
2022/05/18 22:25:43;;;;;;;17.17;16.20;;;;;;;19.27;100.00;101459.34;2013352;71;30905;-78
2022/05/18 22:31:31;;;;;;;24.07;22.77;;;;;;;19.23;100.00;101456.10;1991828;71;30910;-78
2022/05/18 22:37:15;;;;;;;39.07;36.97;;;;;;;19.20;100.00;101450.55;2006403;71;30815;-79
2022/05/18 22:43:01;;;;;;;44.87;42.37;;;;;;;19.16;100.00;101450.97;2013488;71;31429;-78
2022/05/18 22:48:45;;;;;;;59.13;55.93;;;;;;;18.99;100.00;101488.36;2006226;71;30882;-70
2022/05/18 22:54:30;;;;;;;61.17;57.80;;;;;;;18.61;100.00;101518.97;2015082;71;30918;-79
2022/05/18 23:00:18;;;;;;;66.47;62.57;;;;;;;18.08;100.00;101530.77;2007960;71;31352;-70
2022/05/18 23:06:05;;;;;;;68.03;63.83;;;;;;;17.83;100.00;101518.17;1955054;72;30902;-70
2022/05/18 23:11:50;;;;;;;67.67;63.47;;;;;;;17.78;100.00;101533.75;2011442;71;30912;-79
2022/05/18 23:17:35;;;;;;;69.07;64.47;;;;;;;17.56;100.00;101546.30;1998731;71;30882;-80
2022/05/18 23:23:36;;;;;;;69.67;65.07;;;;;;;17.24;100.00;101544.50;1991739;71;30951;-71
2022/05/18 23:29:22;;;;;;;73.03;68.23;;;;;;;17.17;100.00;101543.50;2009879;71;30958;-79
2022/05/18 23:35:11;;;;;;;73.93;68.97;;;;;;;16.98;100.00;101534.94;2017076;71;30888;-69
2022/05/18 23:40:56;;;;;;;65.70;60.97;;;;;;;17.18;100.00;101545.16;2004797;71;31332;-79
2022/05/18 23:46:47;;;;;;;71.57;66.57;;;;;;;17.02;100.00;101549.44;2070193;69;30873;-69
2022/05/18 23:52:35;;;;;;;72.83;67.87;;;;;;;17.08;100.00;101518.70;2000931;71;30826;-79
2022/05/18 23:58:22;;;;;;;71.93;66.93;;;;;;;16.79;100.00;101521.82;2001087;71;30869;-80
